createdAt,value
2022-08-04T00:00:46.876Z,1007.2
2022-08-04T00:01:49.827Z,1007.2
2022-08-04T00:02:53.008Z,1007.2
2022-08-04T00:03:56.270Z,1007.2
2022-08-04T00:04:58.566Z,1007.2
2022-08-04T00:06:01.741Z,1007.2
2022-08-04T00:07:04.730Z,1007.3
2022-08-04T00:08:07.335Z,1007.2
2022-08-04T00:09:10.508Z,1007.3
2022-08-04T00:10:12.829Z,1007.3
2022-08-04T00:11:15.995Z,1007.3
2022-08-04T00:12:18.560Z,1007.3
2022-08-04T00:13:21.458Z,1007.3
2022-08-04T00:14:23.467Z,1007.3
2022-08-04T00:15:25.474Z,1007.3
2022-08-04T00:16:38.356Z,1007.3
2022-08-04T00:17:42.277Z,1007.3
2022-08-04T00:18:48.708Z,1007.3
2022-08-04T00:19:52.110Z,1007.3
2022-08-04T00:20:54.742Z,1007.2
2022-08-04T00:21:57.656Z,1007.3
2022-08-04T00:22:59.942Z,1007.2
2022-08-04T00:24:13.282Z,1007.2
2022-08-04T00:25:17.062Z,1007.2
2022-08-04T00:26:20.029Z,1007.2
2022-08-04T00:27:23.332Z,1007.2
2022-08-04T00:28:26.032Z,1007.2
2022-08-04T00:29:29.168Z,1007.2
2022-08-04T00:30:31.466Z,1007.2
2022-08-04T00:31:57.902Z,1007.2
2022-08-04T00:33:00.899Z,1007.2
2022-08-04T00:34:03.884Z,1007.2
2022-08-04T00:35:06.537Z,1007.2
2022-08-04T00:36:09.774Z,1007.2
2022-08-04T00:37:12.787Z,1007.2
2022-08-04T00:38:15.970Z,1007.2
2022-08-04T00:39:20.574Z,1007.2
2022-08-04T00:40:23.918Z,1007.2
2022-08-04T00:41:26.479Z,1007.2
2022-08-04T00:42:29.670Z,1007.2
2022-08-04T00:43:32.583Z,1007.2
2022-08-04T00:44:34.598Z,1007.1
2022-08-04T00:46:18.106Z,1007.1
2022-08-04T00:47:22.173Z,1007.2
2022-08-04T00:48:26.055Z,1007.2
2022-08-04T00:49:31.125Z,1007.2
2022-08-04T00:50:34.029Z,1007.1
2022-08-04T00:51:36.655Z,1007.1
2022-08-04T00:52:38.996Z,1007.2
2022-08-04T00:53:50.564Z,1007.1
2022-08-04T00:54:53.123Z,1007.1
2022-08-04T00:55:55.748Z,1007.1
2022-08-04T00:56:58.531Z,1007.2
2022-08-04T00:58:01.785Z,1007.1
2022-08-04T00:59:04.208Z,1007.1
2022-08-04T01:00:07.613Z,1007.1
2022-08-04T01:01:10.548Z,1007.1
2022-08-04T01:02:13.479Z,1007.1
2022-08-04T01:03:16.602Z,1007.1
2022-08-04T01:04:23.064Z,1007.1
2022-08-04T01:05:26.263Z,1007.1
2022-08-04T01:06:39.425Z,1007.1
2022-08-04T01:07:41.574Z,1007
2022-08-04T01:08:44.203Z,1007
2022-08-04T01:09:46.852Z,1007.1
2022-08-04T01:10:49.820Z,1007
2022-08-04T01:11:58.079Z,1007
2022-08-04T01:13:00.707Z,1007
2022-08-04T01:14:16.778Z,1007
2022-08-04T01:15:19.344Z,1007
2022-08-04T01:16:22.315Z,1007
2022-08-04T01:17:25.440Z,1007
2022-08-04T01:18:28.339Z,1007
2022-08-04T01:19:31.240Z,1007
2022-08-04T01:20:34.075Z,1007
2022-08-04T01:21:36.686Z,1007
2022-08-04T01:22:39.013Z,1007
2022-08-04T01:23:41.885Z,1007.1
2022-08-04T01:24:44.865Z,1007
2022-08-04T01:25:56.405Z,1007
2022-08-04T01:27:04.248Z,1007
2022-08-04T01:28:08.249Z,1007
2022-08-04T01:29:15.981Z,1007
2022-08-04T01:30:21.298Z,1007
2022-08-04T01:31:24.200Z,1007
2022-08-04T01:32:26.827Z,1007
2022-08-04T01:33:29.229Z,1007
2022-08-04T01:35:06.192Z,1007
2022-08-04T01:36:09.759Z,1007
2022-08-04T01:37:12.394Z,1007
2022-08-04T01:38:22.078Z,1007
2022-08-04T01:39:25.227Z,1007
2022-08-04T01:40:28.827Z,1007
2022-08-04T01:41:33.435Z,1007
2022-08-04T01:42:37.294Z,1007
2022-08-04T01:43:40.276Z,1006.9
2022-08-04T01:44:42.929Z,1007
2022-08-04T01:45:45.567Z,1007
2022-08-04T01:46:48.343Z,1007
2022-08-04T01:47:51.533Z,1007
2022-08-04T01:48:54.736Z,1007
2022-08-04T01:49:57.575Z,1007
2022-08-04T01:51:00.273Z,1007
2022-08-04T01:52:03.384Z,1007
2022-08-04T01:53:06.791Z,1007
2022-08-04T01:54:10.709Z,1007
2022-08-04T01:55:13.883Z,1007
2022-08-04T01:56:16.574Z,1007
2022-08-04T01:57:39.595Z,1007.1
2022-08-04T01:58:43.781Z,1007
2022-08-04T01:59:48.768Z,1007
2022-08-04T02:00:56.803Z,1007
2022-08-04T02:02:00.987Z,1007
2022-08-04T02:03:05.256Z,1007
2022-08-04T02:04:23.749Z,1007
2022-08-04T02:06:03.051Z,1007
2022-08-04T02:07:06.789Z,1007
2022-08-04T02:08:09.693Z,1007
2022-08-04T02:09:12.112Z,1007
2022-08-04T02:10:15.025Z,1007
2022-08-04T02:11:18.165Z,1007
2022-08-04T02:12:20.579Z,1007
2022-08-04T02:13:25.136Z,1007
2022-08-04T02:14:28.090Z,1007
2022-08-04T02:15:32.039Z,1007
2022-08-04T02:16:34.117Z,1007
2022-08-04T02:17:37.097Z,1007
2022-08-04T02:18:40.324Z,1007
2022-08-04T02:19:43.167Z,1007
2022-08-04T02:20:46.133Z,1007
2022-08-04T02:21:48.141Z,1007
2022-08-04T02:22:50.269Z,1007
2022-08-04T02:23:52.893Z,1007
2022-08-04T02:24:55.470Z,1007
2022-08-04T02:25:58.658Z,1007
2022-08-04T02:27:01.558Z,1007
2022-08-04T02:28:04.171Z,1007
2022-08-04T02:29:06.592Z,1006.9
2022-08-04T02:30:10.223Z,1007
2022-08-04T02:31:12.566Z,1006.9
2022-08-04T02:32:14.901Z,1007
2022-08-04T02:33:16.961Z,1007
2022-08-04T02:34:19.927Z,1007
2022-08-04T02:35:22.988Z,1007
2022-08-04T02:36:25.889Z,1007
2022-08-04T02:37:28.801Z,1007
2022-08-04T02:38:31.757Z,1006.9
2022-08-04T02:39:49.623Z,1007
2022-08-04T02:40:52.455Z,1006.9
2022-08-04T02:42:00.565Z,1006.9
2022-08-04T02:43:03.128Z,1006.9
2022-08-04T02:44:05.139Z,1006.9
2022-08-04T02:45:08.316Z,1006.8
2022-08-04T02:46:18.422Z,1006.9
2022-08-04T02:47:22.354Z,1006.8
2022-08-04T02:49:34.223Z,1006.8
2022-08-04T02:50:44.017Z,1006.8
2022-08-04T02:51:47.195Z,1006.8
2022-08-04T02:52:49.976Z,1006.8
2022-08-04T02:53:52.926Z,1006.9
2022-08-04T02:54:55.770Z,1006.9
2022-08-04T02:55:58.674Z,1006.9
2022-08-04T02:57:00.761Z,1006.9
2022-08-04T02:58:09.673Z,1006.9
2022-08-04T02:59:12.872Z,1006.9
2022-08-04T03:00:14.678Z,1006.9
2022-08-04T03:01:17.770Z,1006.9
2022-08-04T03:02:20.759Z,1006.9
2022-08-04T03:03:23.098Z,1006.9
2022-08-04T03:04:26.296Z,1006.9
2022-08-04T03:05:29.181Z,1006.8
2022-08-04T03:07:03.481Z,1006.8
2022-08-04T03:08:07.173Z,1006.8
2022-08-04T03:09:10.019Z,1006.8
2022-08-04T03:10:12.341Z,1006.8
2022-08-04T03:11:14.889Z,1006.9
2022-08-04T03:12:17.794Z,1006.9
2022-08-04T03:13:20.496Z,1006.9
2022-08-04T03:14:23.430Z,1006.9
2022-08-04T03:15:26.617Z,1006.9
2022-08-04T03:16:32.674Z,1006.9
2022-08-04T03:17:53.639Z,1006.9
2022-08-04T03:18:56.521Z,1006.8
2022-08-04T03:19:59.733Z,1006.8
2022-08-04T03:21:02.356Z,1006.8
2022-08-04T03:22:05.011Z,1006.9
2022-08-04T03:23:14.427Z,1006.9
2022-08-04T03:24:20.532Z,1006.8
2022-08-04T03:25:22.917Z,1006.9
2022-08-04T03:26:25.207Z,1006.9
2022-08-04T03:27:28.681Z,1006.9
2022-08-04T03:28:31.105Z,1006.9
2022-08-04T03:29:37.800Z,1006.9
2022-08-04T03:30:40.695Z,1006.9
2022-08-04T03:31:42.842Z,1006.9
2022-08-04T03:32:45.762Z,1006.9
2022-08-04T03:33:53.073Z,1006.9
2022-08-04T03:34:56.206Z,1006.9
2022-08-04T03:35:59.667Z,1006.9
2022-08-04T03:37:02.327Z,1006.8
2022-08-04T03:38:04.740Z,1006.8
2022-08-04T03:39:08.320Z,1006.9
2022-08-04T03:40:11.439Z,1006.9
2022-08-04T03:41:13.798Z,1006.9
2022-08-04T03:42:16.729Z,1006.9
2022-08-04T03:44:00.046Z,1006.9
2022-08-04T03:45:03.256Z,1006.8
2022-08-04T03:46:25.800Z,1006.8
2022-08-04T03:47:28.031Z,1006.9
2022-08-04T03:48:30.922Z,1006.9
2022-08-04T03:49:33.607Z,1006.8
2022-08-04T03:50:41.790Z,1006.8
2022-08-04T03:51:44.421Z,1006.9
2022-08-04T03:52:47.853Z,1006.8
2022-08-04T03:53:50.770Z,1006.8
2022-08-04T03:54:53.454Z,1006.8
2022-08-04T03:55:56.646Z,1006.8
2022-08-04T03:56:59.271Z,1006.8
2022-08-04T03:58:01.979Z,1006.8
2022-08-04T03:59:05.148Z,1006.8
2022-08-04T04:00:08.053Z,1006.8
2022-08-04T04:01:11.595Z,1006.8
2022-08-04T04:02:16.352Z,1006.9
2022-08-04T04:03:29.477Z,1006.8
2022-08-04T04:04:33.014Z,1006.8
2022-08-04T04:06:00.550Z,1006.9
2022-08-04T04:07:17.697Z,1006.9
2022-08-04T04:08:40.990Z,1006.9
2022-08-04T04:10:07.430Z,1006.9
2022-08-04T04:11:10.342Z,1007
2022-08-04T04:12:13.251Z,1006.9
2022-08-04T04:13:16.749Z,1006.9
2022-08-04T04:14:19.375Z,1006.9
2022-08-04T04:15:24.540Z,1006.9
2022-08-04T04:16:27.934Z,1006.9
2022-08-04T04:17:31.542Z,1006.9
2022-08-04T04:18:34.235Z,1006.9
2022-08-04T04:19:36.871Z,1006.9
2022-08-04T04:20:40.314Z,1006.9
2022-08-04T04:21:42.732Z,1006.9
2022-08-04T04:22:45.358Z,1006.9
2022-08-04T04:23:47.767Z,1006.9
2022-08-04T04:24:50.651Z,1006.9
2022-08-04T04:25:53.206Z,1006.9
2022-08-04T04:26:55.560Z,1006.9
2022-08-04T04:28:47.035Z,1006.9
2022-08-04T04:29:50.232Z,1007
2022-08-04T04:30:55.280Z,1007
2022-08-04T04:31:57.359Z,1007
2022-08-04T04:33:00.262Z,1006.9
2022-08-04T04:34:02.829Z,1007
2022-08-04T04:35:05.806Z,1007
2022-08-04T04:36:08.434Z,1007
2022-08-04T04:37:10.446Z,1006.9
2022-08-04T04:38:12.464Z,1007
2022-08-04T04:39:16.362Z,1007
2022-08-04T04:40:20.138Z,1007
2022-08-04T04:41:23.096Z,1006.9
2022-08-04T04:42:26.219Z,1006.9
2022-08-04T04:43:52.918Z,1007
2022-08-04T04:44:55.494Z,1007
2022-08-04T04:46:00.362Z,1007
2022-08-04T04:47:03.342Z,1007
2022-08-04T04:48:10.741Z,1007
2022-08-04T04:49:15.147Z,1007
2022-08-04T04:50:17.158Z,1006.9
2022-08-04T04:51:19.798Z,1007
2022-08-04T04:52:21.929Z,1007
2022-08-04T04:53:24.722Z,1007
2022-08-04T04:54:26.544Z,1007
2022-08-04T04:55:29.511Z,1007
2022-08-04T04:56:32.430Z,1007
2022-08-04T04:57:55.519Z,1007
2022-08-04T04:58:57.809Z,1007
2022-08-04T05:00:03.000Z,1007
2022-08-04T05:01:05.635Z,1006.9
2022-08-04T05:02:08.815Z,1006.9
2022-08-04T05:03:11.700Z,1007
2022-08-04T05:04:13.809Z,1007
2022-08-04T05:05:16.723Z,1006.9
2022-08-04T05:06:19.348Z,1007
2022-08-04T05:07:23.406Z,1006.9
2022-08-04T05:08:47.485Z,1006.9
2022-08-04T05:09:56.887Z,1007
2022-08-04T05:10:59.788Z,1007
2022-08-04T05:12:02.846Z,1007
2022-08-04T05:15:43.740Z,1007
2022-08-04T05:16:47.199Z,1007
2022-08-04T05:17:49.764Z,1007
2022-08-04T05:18:55.856Z,1007
2022-08-04T05:19:59.039Z,1007
2022-08-04T05:21:03.403Z,1007
2022-08-04T05:22:05.759Z,1007
2022-08-04T05:23:16.234Z,1007
2022-08-04T05:24:19.154Z,1007
2022-08-04T05:25:22.066Z,1007
2022-08-04T05:26:24.991Z,1007
2022-08-04T05:27:27.623Z,1007
2022-08-04T05:28:30.258Z,1007
2022-08-04T05:29:35.305Z,1007
2022-08-04T05:30:44.701Z,1007
2022-08-04T05:31:47.342Z,1007
2022-08-04T05:32:50.616Z,1007
2022-08-04T05:34:02.774Z,1007
2022-08-04T05:35:05.772Z,1007
2022-08-04T05:36:39.714Z,1007
2022-08-04T05:37:44.529Z,1007
2022-08-04T05:39:03.432Z,1006.9
2022-08-04T05:40:06.626Z,1006.9
2022-08-04T05:41:08.920Z,1006.9
2022-08-04T05:42:11.774Z,1006.9
2022-08-04T05:43:14.534Z,1006.9
2022-08-04T05:44:17.431Z,1006.9
2022-08-04T05:45:20.303Z,1006.9
2022-08-04T05:46:22.932Z,1007
2022-08-04T05:47:25.787Z,1006.9
2022-08-04T05:48:28.201Z,1006.9
2022-08-04T05:49:30.774Z,1006.9
2022-08-04T05:50:34.204Z,1006.9
2022-08-04T05:51:38.228Z,1006.9
2022-08-04T05:52:40.800Z,1006.9
2022-08-04T05:53:42.870Z,1006.9
2022-08-04T05:54:45.727Z,1006.9
2022-08-04T05:55:59.905Z,1006.9
2022-08-04T05:57:03.289Z,1006.9
2022-08-04T05:58:06.135Z,1006.9
2022-08-04T05:59:08.814Z,1006.9
2022-08-04T06:00:41.746Z,1006.8
2022-08-04T06:01:58.311Z,1006.8
2022-08-04T06:03:01.406Z,1006.8
2022-08-04T06:04:11.922Z,1006.8
2022-08-04T06:05:14.562Z,1006.8
2022-08-04T06:06:17.629Z,1006.8
2022-08-04T06:07:20.403Z,1006.8
2022-08-04T06:08:24.006Z,1006.8
2022-08-04T06:09:26.932Z,1006.8
2022-08-04T06:10:30.276Z,1006.9
2022-08-04T06:12:04.125Z,1006.9
2022-08-04T06:13:07.123Z,1006.9
2022-08-04T06:14:10.037Z,1006.8
2022-08-04T06:15:12.676Z,1006.9
2022-08-04T06:16:30.795Z,1006.8
2022-08-04T06:20:18.534Z,1006.8
2022-08-04T06:21:35.943Z,1006.9
2022-08-04T06:22:38.024Z,1006.8
2022-08-04T06:24:04.047Z,1006.8
2022-08-04T06:25:07.813Z,1006.9
2022-08-04T06:26:11.222Z,1006.9
2022-08-04T06:27:13.869Z,1006.8
2022-08-04T06:28:16.514Z,1006.8
2022-08-04T06:29:19.689Z,1006.9
2022-08-04T06:30:22.808Z,1006.8
2022-08-04T06:32:34.504Z,1006.8
2022-08-04T06:33:55.541Z,1006.8
2022-08-04T06:34:57.521Z,1006.9
2022-08-04T06:36:00.430Z,1006.9
2022-08-04T06:37:02.786Z,1006.9
2022-08-04T06:38:05.699Z,1006.9
2022-08-04T06:39:08.099Z,1006.9
2022-08-04T06:40:33.573Z,1006.9
2022-08-04T06:42:02.593Z,1006.9
2022-08-04T06:43:27.867Z,1006.8
2022-08-04T06:44:45.750Z,1006.9
2022-08-04T06:45:48.895Z,1006.8
2022-08-04T06:46:51.898Z,1006.8
2022-08-04T06:47:54.247Z,1006.8
2022-08-04T06:48:56.819Z,1006.8
2022-08-04T06:51:37.219Z,1006.8
2022-08-04T06:52:52.344Z,1006.8
2022-08-04T06:53:55.809Z,1006.8
2022-08-04T06:54:58.714Z,1006.8
2022-08-04T06:56:02.185Z,1006.8
2022-08-04T06:57:05.936Z,1006.8
2022-08-04T06:58:09.667Z,1006.7
2022-08-04T06:59:12.293Z,1006.7
2022-08-04T07:00:15.190Z,1006.7
2022-08-04T07:01:18.508Z,1006.7
2022-08-04T07:02:21.500Z,1006.8
2022-08-04T07:03:24.353Z,1006.8
2022-08-04T07:04:26.943Z,1006.8
2022-08-04T07:05:29.725Z,1006.7
2022-08-04T07:06:32.328Z,1006.7
2022-08-04T07:07:58.671Z,1006.7
2022-08-04T07:09:01.305Z,1006.7
2022-08-04T07:10:04.486Z,1006.8
2022-08-04T07:11:07.186Z,1006.7
2022-08-04T07:12:09.756Z,1006.7
2022-08-04T07:13:12.449Z,1006.7
2022-08-04T07:14:14.260Z,1006.7
2022-08-04T07:15:16.887Z,1006.7
2022-08-04T07:16:19.510Z,1006.6
2022-08-04T07:17:35.213Z,1006.6
2022-08-04T07:18:38.396Z,1006.6
2022-08-04T07:19:40.950Z,1006.6
2022-08-04T07:20:43.594Z,1006.6
2022-08-04T07:22:25.919Z,1006.7
2022-08-04T07:23:28.517Z,1006.6
2022-08-04T07:24:30.814Z,1006.6
2022-08-04T07:26:13.323Z,1006.6
2022-08-04T07:27:15.790Z,1006.5
2022-08-04T07:28:18.493Z,1006.6
2022-08-04T07:29:21.352Z,1006.6
2022-08-04T07:30:25.566Z,1006.5
2022-08-04T07:31:36.282Z,1006.5
2022-08-04T07:32:39.492Z,1006.5
2022-08-04T07:33:42.341Z,1006.5
2022-08-04T07:34:50.348Z,1006.5
2022-08-04T07:36:12.242Z,1006.5
2022-08-04T07:37:18.235Z,1006.5
2022-08-04T07:38:28.007Z,1006.5
2022-08-04T07:39:48.706Z,1006.5
2022-08-04T07:40:52.666Z,1006.5
2022-08-04T07:41:55.940Z,1006.5
2022-08-04T07:42:59.104Z,1006.5
2022-08-04T07:44:01.757Z,1006.5
2022-08-04T07:45:04.816Z,1006.5
2022-08-04T07:46:12.954Z,1006.5
2022-08-04T07:47:16.164Z,1006.5
2022-08-04T07:48:26.147Z,1006.5
2022-08-04T07:49:58.063Z,1006.5
2022-08-04T07:51:00.518Z,1006.5
2022-08-04T07:52:02.813Z,1006.5
2022-08-04T07:53:56.346Z,1006.4
2022-08-04T07:54:58.503Z,1006.4
2022-08-04T07:56:01.492Z,1006.4
2022-08-04T07:57:04.689Z,1006.4
2022-08-04T07:58:07.525Z,1006.4
2022-08-04T07:59:10.174Z,1006.4
2022-08-04T08:00:12.471Z,1006.4
2022-08-04T08:01:15.669Z,1006.4
2022-08-04T08:02:18.599Z,1006.4
2022-08-04T08:03:22.239Z,1006.4
2022-08-04T08:04:25.127Z,1006.4
2022-08-04T08:05:28.040Z,1006.3
2022-08-04T08:06:36.544Z,1006.3
2022-08-04T08:07:54.081Z,1006.3
2022-08-04T08:08:57.610Z,1006.3
2022-08-04T08:10:00.236Z,1006.3
2022-08-04T08:11:02.591Z,1006.3
2022-08-04T08:12:52.052Z,1006.3
2022-08-04T08:13:55.248Z,1006.3
2022-08-04T08:15:01.689Z,1006.3
2022-08-04T08:16:04.882Z,1006.3
2022-08-04T08:17:08.086Z,1006.3
2022-08-04T08:18:11.571Z,1006.3
2022-08-04T08:19:14.861Z,1006.2
2022-08-04T08:20:30.839Z,1006.3
2022-08-04T08:21:34.154Z,1006.3
2022-08-04T08:23:04.702Z,1006.2
2022-08-04T08:24:13.120Z,1006.2
2022-08-04T08:25:16.243Z,1006.2
2022-08-04T08:26:18.880Z,1006.2
2022-08-04T08:27:22.575Z,1006.2
2022-08-04T08:28:26.311Z,1006.2
2022-08-04T08:29:29.011Z,1006.2
2022-08-04T08:30:33.418Z,1006.2
2022-08-04T08:32:02.846Z,1006.2
2022-08-04T08:33:12.007Z,1006.1
2022-08-04T08:34:28.726Z,1006.2
2022-08-04T08:35:31.771Z,1006.2
2022-08-04T08:36:56.270Z,1006.1
2022-08-04T08:37:58.700Z,1006.1
2022-08-04T08:39:03.529Z,1006.2
2022-08-04T08:40:07.098Z,1006.2
2022-08-04T08:41:09.220Z,1006.1
2022-08-04T08:42:11.832Z,1006.1
2022-08-04T08:44:07.579Z,1006.2
2022-08-04T08:45:39.639Z,1006.1
2022-08-04T08:46:50.501Z,1006.1
2022-08-04T08:48:07.110Z,1006.1
2022-08-04T08:49:10.059Z,1006.1
2022-08-04T08:51:07.183Z,1006.1
2022-08-04T08:52:10.417Z,1006.1
2022-08-04T08:53:14.443Z,1006
2022-08-04T08:54:17.639Z,1006
2022-08-04T08:55:20.801Z,1006
2022-08-04T08:56:31.904Z,1006
2022-08-04T08:57:35.010Z,1006
2022-08-04T08:59:02.341Z,1005.9
2022-08-04T09:00:05.806Z,1005.9
2022-08-04T09:01:08.628Z,1005.9
2022-08-04T09:02:11.883Z,1006
2022-08-04T09:03:15.065Z,1005.9
2022-08-04T09:04:26.785Z,1006
2022-08-04T09:05:34.824Z,1006
2022-08-04T09:06:41.125Z,1006
2022-08-04T09:07:44.293Z,1006
2022-08-04T09:08:47.229Z,1006
2022-08-04T09:09:49.515Z,1005.9
2022-08-04T09:10:52.708Z,1006
2022-08-04T09:11:55.690Z,1006
2022-08-04T09:12:58.054Z,1006
2022-08-04T09:14:00.695Z,1006
2022-08-04T09:15:03.390Z,1006
2022-08-04T09:16:06.176Z,1006
2022-08-04T09:17:08.503Z,1005.9
2022-08-04T09:18:10.941Z,1005.9
2022-08-04T09:19:39.378Z,1005.9
2022-08-04T09:20:42.693Z,1005.9
2022-08-04T09:21:46.062Z,1005.9
2022-08-04T09:22:49.452Z,1005.9
2022-08-04T09:23:52.926Z,1005.9
2022-08-04T09:24:55.221Z,1005.9
2022-08-04T09:25:57.858Z,1005.8
2022-08-04T09:27:01.189Z,1005.8
2022-08-04T09:28:10.102Z,1005.9
2022-08-04T09:29:13.040Z,1005.8
2022-08-04T09:30:16.114Z,1005.8
2022-08-04T09:31:18.792Z,1005.8
2022-08-04T09:32:21.948Z,1005.7
2022-08-04T09:33:46.247Z,1005.8
2022-08-04T09:35:06.147Z,1005.8
2022-08-04T09:36:26.851Z,1005.8
2022-08-04T09:37:29.530Z,1005.8
2022-08-04T09:38:32.147Z,1005.8
2022-08-04T09:39:34.411Z,1005.8
2022-08-04T09:40:58.660Z,1005.7
2022-08-04T09:42:50.335Z,1005.7
2022-08-04T09:44:55.182Z,1005.8
2022-08-04T09:46:45.217Z,1005.7
2022-08-04T09:47:47.624Z,1005.7
2022-08-04T09:48:50.539Z,1005.7
2022-08-04T09:49:53.658Z,1005.7
2022-08-04T09:50:56.364Z,1005.7
2022-08-04T09:52:00.279Z,1005.7
2022-08-04T09:53:03.502Z,1005.7
2022-08-04T09:54:06.109Z,1005.6
2022-08-04T09:55:08.476Z,1005.7
2022-08-04T09:56:11.136Z,1005.7
2022-08-04T09:57:13.769Z,1005.7
2022-08-04T09:58:16.694Z,1005.6
2022-08-04T09:59:19.098Z,1005.7
2022-08-04T10:00:41.664Z,1005.7
2022-08-04T10:01:46.580Z,1005.6
2022-08-04T10:03:02.555Z,1005.6
2022-08-04T10:04:05.332Z,1005.6
2022-08-04T10:05:07.676Z,1005.6
2022-08-04T10:06:10.597Z,1005.6
2022-08-04T10:07:12.718Z,1005.5
2022-08-04T10:08:17.492Z,1005.5
2022-08-04T10:09:20.171Z,1005.4
2022-08-04T10:10:23.610Z,1005.5
2022-08-04T10:11:26.932Z,1005.5
2022-08-04T10:12:30.086Z,1005.5
2022-08-04T10:13:32.418Z,1005.5
2022-08-04T10:14:34.998Z,1005.5
2022-08-04T10:15:37.575Z,1005.5
2022-08-04T10:16:39.651Z,1005.5
2022-08-04T10:17:52.852Z,1005.5
2022-08-04T10:18:55.740Z,1005.5
2022-08-04T10:19:58.357Z,1005.5
2022-08-04T10:21:14.993Z,1005.5
2022-08-04T10:22:34.444Z,1005.5
2022-08-04T10:24:15.166Z,1005.5
2022-08-04T10:26:08.407Z,1005.4
2022-08-04T10:27:11.484Z,1005.4
2022-08-04T10:28:16.816Z,1005.3
2022-08-04T10:29:19.524Z,1005.4
2022-08-04T10:30:22.641Z,1005.4
2022-08-04T10:31:25.000Z,1005.3
2022-08-04T10:32:27.633Z,1005.3
2022-08-04T10:33:30.233Z,1005.3
2022-08-04T10:34:34.179Z,1005.3
2022-08-04T10:35:36.757Z,1005.3
2022-08-04T10:36:39.391Z,1005.3
2022-08-04T10:38:02.567Z,1005.3
2022-08-04T10:39:05.910Z,1005.2
2022-08-04T10:40:46.372Z,1005.2
2022-08-04T10:41:49.840Z,1005.3
2022-08-04T10:42:52.804Z,1005.3
2022-08-04T10:43:55.995Z,1005.2
2022-08-04T10:44:58.460Z,1005.3
2022-08-04T10:46:01.439Z,1005.1
2022-08-04T10:47:04.653Z,1005.2
2022-08-04T10:48:11.223Z,1005.1
2022-08-04T10:49:14.586Z,1005.1
2022-08-04T10:50:17.758Z,1005.1
2022-08-04T10:51:19.566Z,1005.2
2022-08-04T10:52:22.208Z,1005.1
2022-08-04T10:53:25.397Z,1005
2022-08-04T10:54:28.113Z,1005
2022-08-04T10:56:09.203Z,1005.1
2022-08-04T10:57:12.594Z,1005
2022-08-04T10:58:21.910Z,1005
2022-08-04T10:59:51.802Z,1005
2022-08-04T11:01:06.338Z,1005
2022-08-04T11:02:08.917Z,1005
2022-08-04T11:03:18.313Z,1005
2022-08-04T11:04:28.117Z,1005
2022-08-04T11:05:30.531Z,1005.1
2022-08-04T11:06:33.722Z,1005
2022-08-04T11:07:36.837Z,1005
2022-08-04T11:08:40.061Z,1005
2022-08-04T11:09:42.904Z,1005
2022-08-04T11:10:45.526Z,1004.9
2022-08-04T11:12:02.263Z,1004.9
2022-08-04T11:13:04.711Z,1004.9
2022-08-04T11:14:07.073Z,1004.8
2022-08-04T11:15:10.071Z,1004.8
2022-08-04T11:16:12.369Z,1004.8
2022-08-04T11:17:15.375Z,1004.8
2022-08-04T11:18:17.961Z,1004.8
2022-08-04T11:19:21.139Z,1004.9
2022-08-04T11:21:37.148Z,1004.9
2022-08-04T11:22:40.394Z,1004.9
2022-08-04T11:23:42.411Z,1004.9
2022-08-04T11:24:45.545Z,1004.9
2022-08-04T11:25:52.473Z,1004.9
2022-08-04T11:26:55.708Z,1004.8
2022-08-04T11:27:58.893Z,1004.9
2022-08-04T11:29:04.765Z,1004.9
2022-08-04T11:30:07.078Z,1004.8
2022-08-04T11:31:09.478Z,1004.8
2022-08-04T11:32:11.828Z,1004.8
2022-08-04T11:33:14.865Z,1004.8
2022-08-04T11:34:18.277Z,1004.7
2022-08-04T11:35:21.206Z,1004.8
2022-08-04T11:36:24.468Z,1004.8
2022-08-04T11:37:27.946Z,1004.7
2022-08-04T11:38:32.694Z,1004.7
2022-08-04T11:39:35.875Z,1004.7
2022-08-04T11:40:39.277Z,1004.8
2022-08-04T11:41:41.569Z,1004.7
2022-08-04T11:42:43.954Z,1004.7
2022-08-04T11:44:05.750Z,1004.7
2022-08-04T11:45:15.873Z,1004.7
2022-08-04T11:46:18.831Z,1004.7
2022-08-04T11:47:22.263Z,1004.7
2022-08-04T11:48:26.267Z,1004.7
2022-08-04T11:49:29.675Z,1004.7
2022-08-04T11:50:32.306Z,1004.7
2022-08-04T11:51:35.508Z,1004.7
2022-08-04T11:52:38.200Z,1004.7
2022-08-04T11:53:41.391Z,1004.7
2022-08-04T11:54:54.575Z,1004.6
2022-08-04T11:56:11.116Z,1004.8
2022-08-04T11:57:40.390Z,1004.7
2022-08-04T11:58:50.962Z,1004.7
2022-08-04T11:59:53.642Z,1004.7
2022-08-04T12:00:56.268Z,1004.6
2022-08-04T12:01:59.301Z,1004.6
2022-08-04T12:03:02.109Z,1004.6
2022-08-04T12:04:06.471Z,1004.6
2022-08-04T12:05:09.151Z,1004.7
2022-08-04T12:06:40.450Z,1004.7
2022-08-04T12:08:38.290Z,1004.6
2022-08-04T12:09:40.628Z,1004.7
2022-08-04T12:10:43.591Z,1004.8
2022-08-04T12:11:46.009Z,1004.7
2022-08-04T12:12:52.517Z,1004.7
2022-08-04T12:14:01.057Z,1004.7
2022-08-04T12:15:04.836Z,1004.7
2022-08-04T12:16:07.747Z,1004.6
2022-08-04T12:17:10.920Z,1004.7
2022-08-04T12:18:16.430Z,1004.7
2022-08-04T12:19:23.158Z,1004.6
2022-08-04T12:21:53.475Z,1004.6
2022-08-04T12:23:01.129Z,1004.6
2022-08-04T12:24:12.244Z,1004.6
2022-08-04T12:25:14.666Z,1004.6
2022-08-04T12:26:17.285Z,1004.6
2022-08-04T12:27:26.351Z,1004.6
2022-08-04T12:29:09.394Z,1004.5
2022-08-04T12:31:05.161Z,1004.5
2022-08-04T12:32:14.264Z,1004.5
2022-08-04T12:33:18.675Z,1004.5
2022-08-04T12:34:21.673Z,1004.4
2022-08-04T12:35:31.050Z,1004.4
2022-08-04T12:36:33.912Z,1004.3
2022-08-04T12:37:37.110Z,1004.4
2022-08-04T12:38:40.294Z,1004.3
2022-08-04T12:40:31.094Z,1004.4
2022-08-04T12:41:36.439Z,1004.4
2022-08-04T12:42:59.623Z,1004.3
2022-08-04T12:44:02.310Z,1004.2
2022-08-04T12:45:05.014Z,1004.2
2022-08-04T12:46:08.472Z,1004.2
2022-08-04T12:47:29.569Z,1004.2
2022-08-04T12:48:41.710Z,1004.2
2022-08-04T12:49:59.943Z,1004.2
2022-08-04T12:51:06.035Z,1004.2
2022-08-04T12:53:11.626Z,1004.2
2022-08-04T12:54:52.960Z,1004.2
2022-08-04T12:56:02.656Z,1004.2
2022-08-04T12:57:05.039Z,1004.2
2022-08-04T12:58:07.951Z,1004.2
2022-08-04T12:59:13.638Z,1004.2
2022-08-04T13:00:16.044Z,1004.1
2022-08-04T13:02:11.903Z,1004
2022-08-04T13:03:15.015Z,1004
2022-08-04T13:04:20.542Z,1004.1
2022-08-04T13:05:31.890Z,1004
2022-08-04T13:06:34.866Z,1004
2022-08-04T13:07:44.295Z,1004
2022-08-04T13:08:49.221Z,1004
2022-08-04T13:09:51.852Z,1004
2022-08-04T13:10:54.284Z,1004
2022-08-04T13:11:56.573Z,1004
2022-08-04T13:12:59.383Z,1004
2022-08-04T13:14:27.717Z,1004
2022-08-04T13:15:31.079Z,1004
2022-08-04T13:16:33.928Z,1003.9
2022-08-04T13:17:40.044Z,1003.9
2022-08-04T13:18:45.816Z,1003.9
2022-08-04T13:19:53.420Z,1003.9
2022-08-04T13:20:58.960Z,1003.9
2022-08-04T13:23:09.571Z,1003.9
2022-08-04T13:24:32.557Z,1003.9
2022-08-04T13:30:25.786Z,1003.8
2022-08-04T13:31:36.180Z,1003.8
2022-08-04T13:32:38.409Z,1003.9
2022-08-04T13:33:42.669Z,1003.8
2022-08-04T13:34:52.569Z,1003.8
2022-08-04T13:35:56.894Z,1003.8
2022-08-04T13:36:59.183Z,1003.7
2022-08-04T13:38:03.294Z,1003.9
2022-08-04T13:39:06.300Z,1003.8
2022-08-04T13:40:09.799Z,1003.8
2022-08-04T13:41:12.434Z,1003.7
2022-08-04T13:42:15.845Z,1003.7
2022-08-04T13:44:20.266Z,1003.6
2022-08-04T13:45:35.372Z,1003.7
2022-08-04T13:46:37.959Z,1003.6
2022-08-04T13:47:40.878Z,1003.6
2022-08-04T13:48:43.821Z,1003.7
2022-08-04T13:50:11.464Z,1003.7
2022-08-04T13:51:15.305Z,1003.6
2022-08-04T13:52:18.163Z,1003.5
2022-08-04T13:53:22.643Z,1003.5
2022-08-04T13:54:33.555Z,1003.5
2022-08-04T13:55:43.545Z,1003.5
2022-08-04T13:56:49.713Z,1003.5
2022-08-04T13:57:53.634Z,1003.5
2022-08-04T13:59:01.818Z,1003.6
2022-08-04T14:00:04.943Z,1003.5
2022-08-04T14:01:08.033Z,1003.4
2022-08-04T14:02:11.452Z,1003.4
2022-08-04T14:03:24.652Z,1003.4
2022-08-04T14:04:27.428Z,1003.4
2022-08-04T14:06:00.230Z,1003.3
2022-08-04T14:07:03.216Z,1003.3
2022-08-04T14:08:07.123Z,1003.3
2022-08-04T14:09:09.622Z,1003.3
2022-08-04T14:10:12.322Z,1003.4
2022-08-04T14:12:39.161Z,1003.3
2022-08-04T14:13:50.593Z,1003.3
2022-08-04T14:14:53.796Z,1003.2
2022-08-04T14:16:04.671Z,1003.1
2022-08-04T14:17:07.231Z,1003.2
2022-08-04T14:18:23.071Z,1003.2
2022-08-04T14:19:35.888Z,1003.1
2022-08-04T14:20:40.863Z,1003.1
2022-08-04T14:21:43.766Z,1003.1
2022-08-04T14:22:46.837Z,1003
2022-08-04T14:23:49.820Z,1003
2022-08-04T14:24:51.910Z,1003
2022-08-04T14:25:55.155Z,1002.9
2022-08-04T14:26:58.065Z,1002.9
2022-08-04T14:28:01.180Z,1003
2022-08-04T14:29:29.387Z,1002.9